Celtic Voyager — EIQN — position and weather

sailwx.info

Track history (hours):
 
Tides and Currents Weather Stations Pressure Air Temp Water Temp Dewpoint Dewpoint Depression Visibility Wind Speed Wind Dir Waves Ship Positions

Oceanographic research ship Celtic Voyager (Ireland)

Detailed information on ship capabilities available from University of Delaware's Ocean Information Center.

Last reported at 2017-Mar-25 07:30 UTC. Time now 2017-Mar-26 01:43 UTC.
Position N 53°23' W 010°23'.

Length 31 m; beam 8 m.

Type: Ship. MMSI: 250089000.

Date/timePositionNaut miles runAvg speedWind from/ knotsBaromVisibWave heightAir tempDewpointWater temp
2017-Mar-25 07:30N 53°23' W 010°23'10 9.1
2017-Mar-25 06:21N 53°33' W 010°24'8 8.7
2017-Mar-25 05:24N 53°42' W 010°25'10 8.7
2017-Mar-25 04:15N 53°52' W 010°26'8 8.8
2017-Mar-25 03:20N 53°60' W 010°27'10 8.0
2017-Mar-25 02:03N 54°09' W 010°22'5 8.9
2017-Mar-25 01:32N 54°13' W 010°17'9 8.6
2017-Mar-25 00:30N 54°19' W 010°07'71 7.9
2017-Mar-24 15:27N 55°14' W 008°46'3 3.4
2017-Mar-24 14:29N 55°12' W 008°41'1 1.1
2017-Mar-24 13:14N 55°13' W 008°41'29 1.0
2017-Mar-23 08:17N 54°46' W 009°00'11 0.8
2017-Mar-22 19:16N 54°37' W 008°51'5 3.2
2017-Mar-22 17:33N 54°35' W 008°41'4 3.6
2017-Mar-22 16:31N 54°33' W 008°36'5 4.2
2017-Mar-22 15:18N 54°32' W 008°45'41 3.2
2017-Mar-22 02:32N 54°22' W 009°53'10 8.5
2017-Mar-22 01:23N 54°17' W 010°08'7 8.4
2017-Mar-22 00:30N 54°12' W 010°17'8 8.1
2017-Mar-21 23:33N 54°06' W 010°25'24 7.7
2017-Mar-21 20:29N 53°43' W 010°31'8 8.3
2017-Mar-21 19:30N 53°35' W 010°28'8 7.8
2017-Mar-21 18:31N 53°27' W 010°25'9 7.6
2017-Mar-21 17:25N 53°19' W 010°20'7 7.6
2017-Mar-21 16:31N 53°14' W 010°13'  
Track history (hours):
 
Tides and Currents Weather Stations Pressure Air Temp Water Temp Dewpoint Dewpoint Depression Visibility Wind Speed Wind Dir Waves Ship Positions

Oceanographic research ship Celtic Voyager (Ireland)

Detailed information on ship capabilities available from University of Delaware's Ocean Information Center.

Last reported at 2017-Mar-25 07:30 UTC. Time now 2017-Mar-26 01:43 UTC.
Position N 53°23' W 010°23'.

Length 31 m; beam 8 m.

Type: Ship. MMSI: 250089000.

Date/timePositionNaut miles runAvg speedWind from/ knotsBaromVisibWave heightAir tempDewpointWater temp
2017-Mar-25 07:30N 53°23' W 010°23'10 9.1
2017-Mar-25 06:21N 53°33' W 010°24'8 8.7
2017-Mar-25 05:24N 53°42' W 010°25'10 8.7
2017-Mar-25 04:15N 53°52' W 010°26'8 8.8
2017-Mar-25 03:20N 53°60' W 010°27'10 8.0
2017-Mar-25 02:03N 54°09' W 010°22'5 8.9
2017-Mar-25 01:32N 54°13' W 010°17'9 8.6
2017-Mar-25 00:30N 54°19' W 010°07'71 7.9
2017-Mar-24 15:27N 55°14' W 008°46'3 3.4
2017-Mar-24 14:29N 55°12' W 008°41'1 1.1
2017-Mar-24 13:14N 55°13' W 008°41'29 1.0
2017-Mar-23 08:17N 54°46' W 009°00'11 0.8
2017-Mar-22 19:16N 54°37' W 008°51'5 3.2
2017-Mar-22 17:33N 54°35' W 008°41'4 3.6
2017-Mar-22 16:31N 54°33' W 008°36'5 4.2
2017-Mar-22 15:18N 54°32' W 008°45'41 3.2
2017-Mar-22 02:32N 54°22' W 009°53'10 8.5
2017-Mar-22 01:23N 54°17' W 010°08'7 8.4
2017-Mar-22 00:30N 54°12' W 010°17'8 8.1
2017-Mar-21 23:33N 54°06' W 010°25'24 7.7
2017-Mar-21 20:29N 53°43' W 010°31'8 8.3
2017-Mar-21 19:30N 53°35' W 010°28'8 7.8
2017-Mar-21 18:31N 53°27' W 010°25'9 7.6
2017-Mar-21 17:25N 53°19' W 010°20'7 7.6
2017-Mar-21 16:31N 53°14' W 010°13'  

Dump ship's entire track history